createdAt,value
2023-04-09T00:00:46.136Z,218.48
2023-04-09T00:01:46.153Z,219.00
2023-04-09T00:02:46.225Z,218.13
2023-04-09T00:03:46.292Z,217.16
2023-04-09T00:04:46.310Z,218.15
2023-04-09T00:05:46.193Z,218.40
2023-04-09T00:06:46.202Z,218.37
2023-04-09T00:07:46.219Z,217.77
2023-04-09T00:08:46.233Z,217.88
2023-04-09T00:09:46.244Z,217.98
2023-04-09T00:10:46.250Z,217.91
2023-04-09T00:11:46.256Z,217.64
2023-04-09T00:12:46.282Z,218.19
2023-04-09T00:13:46.298Z,218.09
2023-04-09T00:14:46.333Z,217.72
2023-04-09T00:15:46.303Z,218.55
2023-04-09T00:16:46.396Z,218.72
2023-04-09T00:17:46.347Z,218.50
2023-04-09T00:18:46.342Z,218.13
2023-04-09T00:19:46.333Z,218.24
2023-04-09T00:20:46.318Z,218.41
2023-04-09T00:21:46.300Z,218.58
2023-04-09T00:22:46.287Z,218.46
2023-04-09T00:23:46.268Z,217.96
2023-04-09T00:24:46.267Z,217.94
2023-04-09T00:25:46.244Z,218.64
2023-04-09T00:26:46.224Z,218.04
2023-04-09T00:27:46.211Z,218.05
2023-04-09T00:28:46.214Z,218.38
2023-04-09T00:29:46.175Z,217.76
2023-04-09T00:30:46.165Z,217.45
2023-04-09T00:31:46.165Z,218.87
2023-04-09T00:32:46.189Z,217.89
2023-04-09T00:33:46.112Z,218.81
2023-04-09T00:34:46.117Z,217.47
2023-04-09T00:35:46.085Z,219.23
2023-04-09T00:36:46.068Z,217.28
2023-04-09T00:37:46.064Z,217.45
2023-04-09T00:38:46.062Z,217.31
2023-04-09T00:39:46.034Z,218.00
2023-04-09T00:40:45.999Z,218.47
2023-04-09T00:41:45.990Z,217.90
2023-04-09T00:42:45.962Z,217.90
2023-04-09T00:43:45.942Z,217.45
2023-04-09T00:44:45.936Z,216.99
2023-04-09T00:45:45.955Z,216.59
2023-04-09T00:46:45.898Z,217.16
2023-04-09T00:47:45.930Z,217.41
2023-04-09T00:48:45.907Z,216.07
2023-04-09T00:49:45.912Z,216.97
2023-04-09T00:50:45.911Z,216.94
2023-04-09T00:51:45.918Z,217.51
2023-04-09T00:52:45.936Z,216.55
2023-04-09T00:53:45.927Z,217.26
2023-04-09T00:54:45.943Z,217.85
2023-04-09T00:55:45.955Z,216.57
2023-04-09T00:56:45.954Z,216.28
2023-04-09T00:57:45.963Z,216.08
2023-04-09T00:58:45.978Z,215.83
2023-04-09T00:59:45.995Z,215.55
2023-04-09T01:00:46.037Z,216.83
2023-04-09T01:01:46.016Z,216.71
2023-04-09T01:02:46.125Z,217.05
2023-04-09T01:03:46.085Z,216.84
2023-04-09T01:04:46.043Z,216.85
2023-04-09T01:05:46.063Z,216.41
2023-04-09T01:06:46.072Z,215.93
2023-04-09T01:07:46.075Z,216.38
2023-04-09T01:08:46.099Z,215.82
2023-04-09T01:09:46.123Z,216.49
2023-04-09T01:10:46.117Z,216.57
2023-04-09T01:11:46.125Z,216.87
2023-04-09T01:12:46.143Z,216.37
2023-04-09T01:13:46.151Z,216.52
2023-04-09T01:14:46.178Z,215.92
2023-04-09T01:15:46.164Z,215.43
2023-04-09T01:16:46.197Z,216.07
2023-04-09T01:17:46.199Z,216.99
2023-04-09T01:18:46.184Z,216.14
2023-04-09T01:19:46.197Z,215.76
2023-04-09T01:20:46.212Z,217.14
2023-04-09T01:21:46.229Z,215.96
2023-04-09T01:22:46.232Z,215.90
2023-04-09T01:23:46.238Z,216.04
2023-04-09T01:24:46.284Z,215.79
2023-04-09T01:25:46.335Z,215.45
2023-04-09T01:26:46.298Z,215.25
2023-04-09T01:27:46.277Z,215.47
2023-04-09T01:28:46.291Z,216.21
2023-04-09T01:29:46.308Z,214.63
2023-04-09T01:30:46.368Z,214.10
2023-04-09T01:31:46.325Z,214.73
2023-04-09T01:32:46.380Z,215.02
2023-04-09T01:33:46.338Z,215.93
2023-04-09T01:34:46.354Z,216.43
2023-04-09T01:35:46.407Z,214.94
2023-04-09T01:36:46.382Z,216.98
2023-04-09T01:37:46.382Z,215.15
2023-04-09T01:38:46.394Z,215.23
2023-04-09T01:39:46.403Z,215.37
2023-04-09T01:40:46.422Z,216.32
2023-04-09T01:41:46.424Z,215.69
2023-04-09T01:42:46.437Z,215.63
2023-04-09T01:43:46.440Z,215.82
2023-04-09T01:44:46.460Z,215.02
2023-04-09T01:45:46.489Z,215.69
2023-04-09T01:46:46.482Z,215.98
2023-04-09T01:47:46.493Z,215.54
2023-04-09T01:48:46.489Z,214.81
2023-04-09T01:49:46.517Z,215.59
2023-04-09T01:50:46.520Z,215.82
2023-04-09T01:51:46.542Z,215.07
2023-04-09T01:52:46.530Z,215.56
2023-04-09T01:53:46.544Z,215.17
2023-04-09T01:54:46.549Z,215.35
2023-04-09T01:55:46.560Z,215.89
2023-04-09T01:56:46.572Z,215.79
2023-04-09T01:57:46.578Z,215.29
2023-04-09T01:58:46.589Z,213.78
2023-04-09T01:59:46.599Z,215.56
2023-04-09T02:00:46.621Z,214.79
2023-04-09T02:01:46.784Z,215.23
2023-04-09T02:02:46.677Z,214.39
2023-04-09T02:03:46.753Z,215.99
2023-04-09T02:04:46.666Z,214.46
2023-04-09T02:05:46.672Z,214.70
2023-04-09T02:06:46.678Z,215.13
2023-04-09T02:07:46.687Z,214.05
2023-04-09T02:08:46.710Z,214.47
2023-04-09T02:09:46.708Z,213.87
2023-04-09T02:10:46.730Z,214.97
2023-04-09T02:11:46.737Z,214.24
2023-04-09T02:12:46.752Z,214.58
2023-04-09T02:13:46.759Z,214.01
2023-04-09T02:14:46.768Z,213.84
2023-04-09T02:15:46.825Z,213.62
2023-04-09T02:16:46.779Z,214.25
2023-04-09T02:17:46.858Z,213.15
2023-04-09T02:18:46.822Z,213.98
2023-04-09T02:19:46.811Z,213.92
2023-04-09T02:20:46.837Z,214.41
2023-04-09T02:21:46.823Z,213.20
2023-04-09T02:22:46.839Z,213.83
2023-04-09T02:23:46.839Z,213.60
2023-04-09T02:24:46.858Z,212.50
2023-04-09T02:25:46.878Z,213.25
2023-04-09T02:26:46.888Z,213.24
2023-04-09T02:27:46.893Z,212.67
2023-04-09T02:28:46.897Z,212.88
2023-04-09T02:29:46.908Z,212.96
2023-04-09T02:30:46.982Z,213.06
2023-04-09T02:31:46.936Z,213.82
2023-04-09T02:32:46.977Z,213.93
2023-04-09T02:33:46.954Z,212.80
2023-04-09T02:34:46.967Z,213.36
2023-04-09T02:35:46.992Z,213.70
2023-04-09T02:36:46.994Z,212.91
2023-04-09T02:37:47.007Z,212.68
2023-04-09T02:38:47.016Z,212.63
2023-04-09T02:39:47.041Z,212.53
2023-04-09T02:40:47.057Z,213.18
2023-04-09T02:41:47.047Z,212.77
2023-04-09T02:42:47.058Z,213.27
2023-04-09T02:43:47.073Z,213.39
2023-04-09T02:44:47.091Z,212.94
2023-04-09T02:45:47.103Z,212.97
2023-04-09T02:46:47.197Z,213.06
2023-04-09T02:47:47.156Z,212.89
2023-04-09T02:48:47.146Z,212.07
2023-04-09T02:49:47.163Z,212.32
2023-04-09T02:50:47.174Z,212.01
2023-04-09T02:51:47.177Z,212.04
2023-04-09T02:52:47.216Z,211.88
2023-04-09T02:53:47.209Z,211.54
2023-04-09T02:54:47.230Z,211.86
2023-04-09T02:55:47.251Z,212.39
2023-04-09T02:56:47.293Z,191.44
2023-04-09T02:57:47.306Z,172.18
2023-04-09T02:58:47.320Z,165.08
2023-04-09T02:59:47.345Z,160.55
2023-04-09T03:00:47.361Z,150.74
2023-04-09T03:01:47.458Z,138.96
2023-04-09T03:02:47.521Z,130.34
2023-04-09T03:03:47.592Z,119.91
2023-04-09T03:04:47.534Z,109.79
2023-04-09T03:05:47.599Z,101.71
2023-04-09T03:06:47.661Z,88.72
2023-04-09T03:07:47.717Z,74.92
2023-04-09T03:08:47.774Z,67.27
2023-04-09T03:09:47.837Z,57.32
2023-04-09T03:10:47.892Z,53.48
2023-04-09T03:11:47.952Z,36.87
2023-04-09T03:12:48.028Z,31.02
2023-04-09T03:13:48.096Z,27.26
2023-04-09T03:14:48.172Z,25.00
2023-04-09T03:15:48.261Z,25.92
2023-04-09T03:16:48.315Z,25.00
2023-04-09T03:17:48.377Z,26.76
2023-04-09T03:18:48.420Z,24.59
2023-04-09T03:19:48.473Z,24.14
2023-04-09T03:20:48.514Z,26.35
2023-04-09T03:21:48.556Z,24.30
2023-04-09T03:22:48.598Z,25.00
2023-04-09T03:23:48.630Z,26.46
2023-04-09T03:24:48.684Z,24.01
2023-04-09T03:25:48.785Z,25.84
2023-04-09T03:26:48.867Z,25.00
2023-04-09T03:27:48.923Z,25.05
2023-04-09T03:28:49.003Z,25.00
2023-04-09T03:29:49.072Z,27.81
2023-04-09T03:30:49.117Z,25.27
2023-04-09T03:31:49.139Z,25.87
2023-04-09T03:32:49.161Z,25.00
2023-04-09T03:33:49.227Z,26.51
2023-04-09T03:34:49.274Z,25.22
2023-04-09T03:35:49.388Z,25.59
2023-04-09T03:36:49.349Z,23.70
2023-04-09T03:37:49.353Z,22.55
2023-04-09T03:38:49.485Z,19.63
2023-04-09T03:39:49.379Z,19.61
2023-04-09T03:40:49.412Z,16.52
2023-04-09T03:41:49.417Z,24.69
2023-04-09T03:42:49.427Z,25.04
2023-04-09T03:43:49.450Z,25.68
2023-04-09T03:44:49.462Z,25.00
2023-04-09T03:45:49.491Z,28.04
2023-04-09T03:46:49.547Z,27.95
2023-04-09T03:47:49.601Z,26.57
2023-04-09T03:48:49.643Z,24.53
2023-04-09T03:49:49.680Z,25.18
2023-04-09T03:50:49.781Z,25.04
2023-04-09T03:51:49.866Z,26.15
2023-04-09T03:52:49.948Z,24.65
2023-04-09T03:53:49.978Z,26.42
2023-04-09T03:54:50.039Z,29.03
2023-04-09T03:55:50.097Z,25.55
2023-04-09T03:56:50.115Z,24.51
2023-04-09T03:57:50.120Z,23.54
2023-04-09T03:58:50.417Z,24.60
2023-04-09T03:59:50.160Z,26.61
2023-04-09T04:00:50.161Z,24.66
2023-04-09T04:01:50.331Z,25.56
2023-04-09T04:02:50.605Z,25.05
2023-04-09T04:03:50.332Z,28.24
2023-04-09T04:04:50.283Z,26.37
2023-04-09T04:05:50.225Z,28.32
2023-04-09T04:06:50.270Z,28.58
2023-04-09T04:07:50.255Z,29.33
2023-04-09T04:08:50.327Z,29.70
2023-04-09T04:09:50.269Z,29.13
2023-04-09T04:10:50.296Z,27.23
2023-04-09T04:11:50.307Z,27.40
2023-04-09T04:12:50.370Z,29.48
2023-04-09T04:13:50.337Z,27.10
2023-04-09T04:14:50.346Z,27.11
2023-04-09T04:15:50.353Z,25.30
2023-04-09T04:16:50.372Z,26.28
2023-04-09T04:17:50.397Z,25.69
2023-04-09T04:18:50.730Z,26.31
2023-04-09T04:19:50.405Z,25.00
2023-04-09T04:20:50.422Z,27.94
2023-04-09T04:21:50.441Z,27.54
2023-04-09T04:22:50.444Z,25.80
2023-04-09T04:23:50.468Z,25.23
2023-04-09T04:24:50.479Z,27.12
2023-04-09T04:25:50.488Z,25.78
2023-04-09T04:26:50.545Z,26.22
2023-04-09T04:27:50.553Z,27.34
2023-04-09T04:28:50.830Z,25.83
2023-04-09T04:29:50.629Z,28.43
2023-04-09T04:30:50.668Z,26.72
2023-04-09T04:31:50.766Z,25.97
2023-04-09T04:32:50.805Z,25.55
2023-04-09T04:33:50.734Z,25.63
2023-04-09T04:34:50.764Z,25.27
2023-04-09T04:35:50.801Z,26.74
2023-04-09T04:36:50.788Z,26.99
2023-04-09T04:37:50.799Z,25.13
2023-04-09T04:38:50.983Z,27.90
2023-04-09T04:39:50.830Z,29.38
2023-04-09T04:40:50.847Z,29.12
2023-04-09T04:41:50.858Z,31.47
2023-04-09T04:42:50.852Z,32.83
2023-04-09T04:43:50.858Z,33.51
2023-04-09T04:44:50.863Z,31.44
2023-04-09T04:45:52.374Z,34.53
2023-04-09T04:46:51.099Z,34.90
2023-04-09T04:47:51.178Z,36.72
2023-04-09T04:48:51.407Z,36.29
2023-04-09T04:49:51.181Z,35.68
2023-04-09T04:50:51.203Z,35.60
2023-04-09T04:51:51.245Z,36.48
2023-04-09T04:52:51.249Z,36.09
2023-04-09T04:53:51.285Z,38.90
2023-04-09T04:54:51.290Z,37.23
2023-04-09T04:55:51.323Z,39.66
2023-04-09T04:56:51.407Z,40.91
2023-04-09T04:57:51.379Z,37.45
2023-04-09T04:58:51.653Z,38.95
2023-04-09T04:59:51.432Z,40.34
2023-04-09T05:00:51.482Z,41.62
2023-04-09T05:01:51.531Z,42.92
2023-04-09T05:02:51.769Z,44.25
2023-04-09T05:03:51.652Z,44.91
2023-04-09T05:04:51.603Z,43.21
2023-04-09T05:05:51.636Z,46.81
2023-04-09T05:06:51.678Z,45.70
2023-04-09T05:07:51.703Z,44.82
2023-04-09T05:08:52.172Z,47.57
2023-04-09T05:09:51.755Z,44.82
2023-04-09T05:10:51.787Z,46.82
2023-04-09T05:11:51.824Z,44.27
2023-04-09T05:12:51.851Z,46.41
2023-04-09T05:13:51.868Z,46.42
2023-04-09T05:14:51.895Z,46.08
2023-04-09T05:15:51.932Z,46.60
2023-04-09T05:16:51.988Z,46.94
2023-04-09T05:17:52.036Z,48.25
2023-04-09T05:18:52.374Z,48.04
2023-04-09T05:19:52.049Z,48.06
2023-04-09T05:20:52.056Z,47.51
2023-04-09T05:21:52.098Z,47.99
2023-04-09T05:22:52.263Z,48.65
2023-04-09T05:23:52.091Z,48.99
2023-04-09T05:24:52.112Z,49.58
2023-04-09T05:25:52.115Z,50.49
2023-04-09T05:26:52.138Z,49.19
2023-04-09T05:27:52.157Z,49.60
2023-04-09T05:28:52.414Z,50.77
2023-04-09T05:29:52.171Z,51.03
2023-04-09T05:30:52.243Z,50.10
2023-04-09T05:31:52.204Z,50.33
2023-04-09T05:32:52.271Z,46.95
2023-04-09T05:33:52.238Z,48.66
2023-04-09T05:34:52.240Z,50.27
2023-04-09T05:35:52.333Z,48.03
2023-04-09T05:36:52.280Z,48.92
2023-04-09T05:37:52.297Z,53.81
2023-04-09T05:38:52.735Z,52.48
2023-04-09T05:39:52.320Z,55.85
2023-04-09T05:40:52.324Z,60.18
2023-04-09T05:41:52.357Z,58.36
2023-04-09T05:42:52.355Z,58.27
2023-04-09T05:43:52.568Z,57.66
2023-04-09T05:44:52.449Z,57.51
2023-04-09T05:45:52.502Z,56.38
2023-04-09T05:46:52.506Z,56.30
2023-04-09T05:47:52.603Z,53.49
2023-04-09T05:48:52.979Z,53.53
2023-04-09T05:49:52.592Z,53.07
2023-04-09T05:50:55.616Z,54.10
2023-04-09T05:51:52.658Z,54.37
2023-04-09T05:52:52.654Z,59.50
2023-04-09T05:53:53.114Z,65.42
2023-04-09T05:54:52.684Z,63.29
2023-04-09T05:55:52.717Z,64.32
2023-04-09T05:56:52.714Z,61.00
2023-04-09T05:57:52.752Z,63.26
2023-04-09T05:58:52.723Z,61.54
2023-04-09T05:59:52.725Z,62.37
2023-04-09T06:00:52.762Z,59.32
2023-04-09T06:01:52.830Z,57.88
2023-04-09T06:02:52.850Z,58.15
2023-04-09T06:03:54.767Z,59.73
2023-04-09T06:04:52.813Z,58.24
2023-04-09T06:05:52.816Z,53.95
2023-04-09T06:06:52.840Z,53.78
2023-04-09T06:07:52.870Z,52.29
2023-04-09T06:08:52.867Z,52.75
2023-04-09T06:09:52.885Z,54.47
2023-04-09T06:10:52.906Z,53.57
2023-04-09T06:11:52.931Z,52.18
2023-04-09T06:12:52.956Z,52.27
2023-04-09T06:13:53.142Z,52.54
2023-04-09T06:14:52.993Z,53.14
2023-04-09T06:15:53.067Z,53.71
2023-04-09T06:16:53.027Z,54.20
2023-04-09T06:17:53.120Z,57.20
2023-04-09T06:18:53.059Z,56.63
2023-04-09T06:19:53.078Z,58.57
2023-04-09T06:20:53.101Z,56.11
2023-04-09T06:21:53.139Z,57.62
2023-04-09T06:22:53.143Z,57.80
2023-04-09T06:23:53.643Z,62.47
2023-04-09T06:24:53.182Z,61.87
2023-04-09T06:25:53.212Z,60.64
2023-04-09T06:26:53.233Z,59.92
2023-04-09T06:27:53.252Z,60.20
2023-04-09T06:28:53.286Z,63.21
2023-04-09T06:29:53.297Z,63.35
2023-04-09T06:30:53.394Z,62.48
2023-04-09T06:31:53.347Z,63.83
2023-04-09T06:32:55.410Z,61.72
2023-04-09T06:33:53.479Z,61.76
2023-04-09T06:34:53.394Z,62.15
2023-04-09T06:35:53.436Z,62.29
2023-04-09T06:36:53.432Z,61.78
2023-04-09T06:37:53.478Z,62.08
2023-04-09T06:38:53.483Z,63.11
2023-04-09T06:40:00.939Z,65.14
2023-04-09T06:40:54.531Z,62.02
2023-04-09T06:41:53.539Z,63.19
2023-04-09T06:42:53.553Z,64.78
2023-04-09T06:43:53.733Z,66.57
2023-04-09T06:44:53.584Z,71.56
2023-04-09T06:45:53.619Z,71.55
2023-04-09T06:46:53.785Z,70.04
2023-04-09T06:47:53.666Z,70.17
2023-04-09T06:48:53.659Z,71.41
2023-04-09T06:49:53.683Z,72.67
2023-04-09T06:50:53.703Z,71.55
2023-04-09T06:51:53.736Z,74.54
2023-04-09T06:52:53.754Z,74.65
2023-04-09T06:53:54.003Z,74.44
2023-04-09T06:54:53.805Z,74.44
2023-04-09T06:55:55.427Z,74.47
2023-04-09T06:56:54.107Z,74.43
2023-04-09T06:57:54.158Z,72.27
2023-04-09T06:58:54.178Z,74.57
2023-04-09T06:59:54.215Z,74.67
2023-04-09T07:00:54.248Z,74.99
2023-04-09T07:01:54.729Z,73.53
2023-04-09T07:02:54.486Z,73.99
2023-04-09T07:03:54.515Z,73.04
2023-04-09T07:04:54.369Z,73.16
2023-04-09T07:05:54.376Z,73.51
2023-04-09T07:06:54.397Z,73.89
2023-04-09T07:07:54.436Z,73.69
2023-04-09T07:08:54.745Z,74.54
2023-04-09T07:09:54.463Z,74.22
2023-04-09T07:10:54.483Z,73.81
2023-04-09T07:11:54.496Z,73.71
2023-04-09T07:12:54.514Z,75.54
2023-04-09T07:13:54.642Z,73.94
2023-04-09T07:14:54.551Z,74.67
2023-04-09T07:15:54.559Z,77.13
2023-04-09T07:16:54.584Z,78.16
2023-04-09T07:17:54.622Z,77.26
2023-04-09T07:18:54.628Z,76.42
2023-04-09T07:19:54.648Z,75.27
2023-04-09T07:20:54.638Z,74.82
2023-04-09T07:21:54.672Z,77.71
2023-04-09T07:22:54.667Z,74.65
2023-04-09T07:23:54.998Z,77.13
2023-04-09T07:24:54.727Z,75.09
2023-04-09T07:25:54.734Z,76.19
2023-04-09T07:26:54.750Z,76.62
2023-04-09T07:27:54.767Z,77.87
2023-04-09T07:28:54.788Z,78.50
2023-04-09T07:29:54.811Z,80.30
2023-04-09T07:30:54.824Z,79.87
2023-04-09T07:31:54.949Z,80.02
2023-04-09T07:32:54.881Z,83.21
2023-04-09T07:33:55.216Z,81.33
2023-04-09T07:34:54.929Z,81.36
2023-04-09T07:35:56.060Z,80.72
2023-04-09T07:36:54.969Z,78.49
2023-04-09T07:37:55.004Z,81.97
2023-04-09T07:38:55.275Z,85.85
2023-04-09T07:39:55.027Z,83.13
2023-04-09T07:40:55.048Z,83.18
2023-04-09T07:41:55.069Z,82.85
2023-04-09T07:42:55.101Z,82.47
2023-04-09T07:43:55.117Z,85.18
2023-04-09T07:44:55.149Z,85.96
2023-04-09T07:45:55.154Z,85.51
2023-04-09T07:46:55.222Z,86.80
2023-04-09T07:47:55.223Z,88.59
2023-04-09T07:48:55.498Z,87.17
2023-04-09T07:49:55.266Z,87.87
2023-04-09T07:50:55.255Z,88.81
2023-04-09T07:51:55.277Z,91.33
2023-04-09T07:52:55.298Z,89.38
2023-04-09T07:53:55.344Z,90.75
2023-04-09T07:54:55.338Z,91.64
2023-04-09T07:55:55.354Z,92.43
2023-04-09T07:56:55.382Z,92.13
2023-04-09T07:57:55.389Z,90.03
2023-04-09T07:58:55.415Z,92.64
2023-04-09T07:59:55.457Z,91.41
2023-04-09T08:00:55.455Z,90.93
2023-04-09T08:01:55.514Z,90.34
2023-04-09T08:02:55.677Z,90.48
2023-04-09T08:03:55.710Z,91.96
2023-04-09T08:04:55.671Z,90.75
2023-04-09T08:05:55.588Z,92.23
2023-04-09T08:06:55.631Z,90.77
2023-04-09T08:07:55.662Z,90.29
2023-04-09T08:08:55.740Z,91.07
2023-04-09T08:09:55.753Z,90.03
2023-04-09T08:10:55.814Z,88.73
2023-04-09T08:11:55.887Z,88.35
2023-04-09T08:12:55.878Z,88.71
2023-04-09T08:13:55.916Z,89.84
2023-04-09T08:14:55.960Z,91.00
2023-04-09T08:15:56.060Z,93.74
2023-04-09T08:16:56.074Z,95.13
2023-04-09T08:17:56.126Z,96.05
2023-04-09T08:18:56.126Z,98.63
2023-04-09T08:19:56.161Z,95.19
2023-04-09T08:20:56.181Z,96.24
2023-04-09T08:21:56.225Z,97.33
2023-04-09T08:22:56.259Z,96.38
2023-04-09T08:23:56.288Z,98.72
2023-04-09T08:24:56.308Z,99.77
2023-04-09T08:25:56.340Z,96.49
2023-04-09T08:26:56.363Z,98.23
2023-04-09T08:27:56.398Z,98.09
2023-04-09T08:28:56.425Z,98.90
2023-04-09T08:29:56.455Z,100.37
2023-04-09T08:30:56.497Z,100.15
2023-04-09T08:31:56.601Z,98.40
2023-04-09T08:32:56.583Z,99.76
2023-04-09T08:33:56.574Z,99.88
2023-04-09T08:34:56.563Z,100.38
2023-04-09T08:35:56.558Z,100.57
2023-04-09T08:36:56.569Z,100.80
2023-04-09T08:37:56.579Z,103.59
2023-04-09T08:38:56.714Z,105.90
2023-04-09T08:39:56.602Z,102.21
2023-04-09T08:40:56.617Z,101.87
2023-04-09T08:41:56.638Z,102.36
2023-04-09T08:42:56.643Z,103.10
2023-04-09T08:43:58.833Z,100.71
2023-04-09T08:44:56.666Z,98.64
2023-04-09T08:45:56.675Z,98.39
2023-04-09T08:46:58.442Z,97.33
2023-04-09T08:47:56.730Z,97.40
2023-04-09T08:48:56.728Z,96.25
2023-04-09T08:49:56.721Z,92.43
2023-04-09T08:50:56.715Z,95.66
2023-04-09T08:51:56.728Z,92.09
2023-04-09T08:52:56.731Z,93.59
2023-04-09T08:53:56.746Z,89.76
2023-04-09T08:54:56.789Z,90.05
2023-04-09T08:55:56.767Z,86.77
2023-04-09T08:56:56.769Z,88.27
2023-04-09T08:57:56.765Z,86.15
2023-04-09T08:58:56.776Z,88.13
2023-04-09T08:59:56.803Z,95.38
2023-04-09T09:00:56.821Z,97.79
2023-04-09T09:01:56.884Z,109.18
2023-04-09T09:02:56.913Z,113.35
2023-04-09T09:03:56.875Z,119.97
2023-04-09T09:04:56.805Z,129.88
2023-04-09T09:05:56.814Z,137.27
2023-04-09T09:06:56.916Z,147.47
2023-04-09T09:07:56.820Z,155.51
2023-04-09T09:08:56.818Z,158.23
2023-04-09T09:09:56.826Z,159.56
2023-04-09T09:10:56.830Z,162.58
2023-04-09T09:11:56.828Z,165.20
2023-04-09T09:12:56.828Z,170.45
2023-04-09T09:13:56.829Z,171.99
2023-04-09T09:14:56.823Z,174.57
2023-04-09T09:15:56.828Z,178.86
2023-04-09T09:16:56.924Z,180.87
2023-04-09T09:17:56.885Z,183.33
2023-04-09T09:18:57.058Z,187.96
2023-04-09T09:19:56.834Z,189.88
2023-04-09T09:20:56.822Z,192.02
2023-04-09T09:21:56.810Z,194.01
2023-04-09T09:22:57.094Z,199.66
2023-04-09T09:23:56.813Z,200.36
2023-04-09T09:24:56.813Z,202.08
2023-04-09T09:25:56.813Z,204.44
2023-04-09T09:26:56.814Z,206.82
2023-04-09T09:27:56.817Z,206.43
2023-04-09T09:28:56.821Z,208.96
2023-04-09T09:29:56.835Z,212.60
2023-04-09T09:30:56.863Z,212.73
2023-04-09T09:31:56.829Z,213.48
2023-04-09T09:32:56.859Z,214.69
2023-04-09T09:33:56.858Z,216.73
2023-04-09T09:34:56.859Z,221.03
2023-04-09T09:35:56.879Z,222.47
2023-04-09T09:36:56.841Z,222.60
2023-04-09T09:37:56.833Z,223.15
2023-04-09T09:38:56.829Z,224.54
2023-04-09T09:39:56.831Z,226.66
2023-04-09T09:40:56.830Z,230.01
2023-04-09T09:41:56.819Z,231.91
2023-04-09T09:42:56.824Z,232.98
2023-04-09T09:43:56.821Z,234.27
2023-04-09T09:44:56.828Z,237.04
2023-04-09T09:45:56.826Z,236.43
2023-04-09T09:46:56.814Z,237.37
2023-04-09T09:47:56.829Z,238.38
2023-04-09T09:48:56.801Z,238.92
2023-04-09T09:49:56.826Z,240.21
2023-04-09T09:50:56.861Z,240.90
2023-04-09T09:51:56.919Z,242.81
2023-04-09T09:52:56.945Z,242.88
2023-04-09T09:53:57.008Z,243.38
2023-04-09T09:54:57.030Z,244.44
2023-04-09T09:55:57.060Z,245.31
2023-04-09T09:56:57.102Z,247.02
2023-04-09T09:57:57.136Z,248.07
2023-04-09T09:58:57.170Z,247.93
2023-04-09T09:59:57.206Z,248.29
2023-04-09T10:00:57.242Z,248.16
2023-04-09T10:01:57.334Z,247.93
2023-04-09T10:02:57.393Z,250.00
2023-04-09T10:03:57.342Z,249.71
2023-04-09T10:04:57.369Z,248.77
2023-04-09T10:05:57.463Z,249.62
2023-04-09T10:06:57.430Z,250.00
2023-04-09T10:07:57.473Z,249.88
2023-04-09T10:08:57.497Z,249.31
2023-04-09T10:09:57.548Z,249.75
2023-04-09T10:10:57.565Z,249.17
2023-04-09T10:11:57.577Z,249.49
2023-04-09T10:12:57.597Z,249.87
2023-04-09T10:13:57.613Z,249.53
2023-04-09T10:14:57.662Z,248.82
2023-04-09T10:15:57.743Z,249.71
2023-04-09T10:16:57.680Z,249.81
2023-04-09T10:17:57.729Z,249.89
2023-04-09T10:18:57.720Z,250.00
2023-04-09T10:19:57.748Z,249.75
2023-04-09T10:20:57.768Z,249.98
2023-04-09T10:21:57.788Z,249.65
2023-04-09T10:22:57.820Z,249.49
2023-04-09T10:23:57.833Z,249.44
2023-04-09T10:24:57.883Z,249.68
2023-04-09T10:25:57.883Z,249.34
2023-04-09T10:26:57.894Z,249.25
2023-04-09T10:27:57.922Z,249.08
2023-04-09T10:28:57.937Z,249.07
2023-04-09T10:29:57.966Z,249.72
2023-04-09T10:30:58.013Z,249.61
2023-04-09T10:31:57.993Z,250.00
2023-04-09T10:32:58.028Z,249.75
2023-04-09T10:33:58.034Z,250.00
2023-04-09T10:34:58.050Z,249.53
2023-04-09T10:35:58.097Z,249.55
2023-04-09T10:36:58.088Z,249.87
2023-04-09T10:37:58.104Z,249.83
2023-04-09T10:38:58.119Z,249.91
2023-04-09T10:39:58.141Z,249.47
2023-04-09T10:40:58.159Z,250.00
2023-04-09T10:41:58.167Z,250.00
2023-04-09T10:42:58.178Z,249.48
2023-04-09T10:43:58.181Z,249.78
2023-04-09T10:44:58.199Z,250.00
2023-04-09T10:45:58.215Z,249.71
2023-04-09T10:46:58.272Z,249.84
2023-04-09T10:47:58.272Z,249.02
2023-04-09T10:48:58.247Z,249.36
2023-04-09T10:49:58.255Z,249.87
2023-04-09T10:50:58.268Z,249.39
2023-04-09T10:51:58.277Z,249.06
2023-04-09T10:52:58.341Z,249.93
2023-04-09T10:53:58.292Z,249.73
2023-04-09T10:54:58.289Z,249.00
2023-04-09T10:55:58.310Z,249.90
2023-04-09T10:56:58.307Z,250.00
2023-04-09T10:57:58.304Z,249.92
2023-04-09T10:58:58.313Z,249.99
2023-04-09T10:59:58.310Z,249.43
2023-04-09T11:00:58.331Z,249.01
2023-04-09T11:01:58.414Z,250.00
2023-04-09T11:02:58.414Z,249.63
2023-04-09T11:03:58.320Z,249.55
2023-04-09T11:04:58.463Z,248.99
2023-04-09T11:05:58.354Z,250.00
2023-04-09T11:06:58.337Z,249.25
2023-04-09T11:07:58.342Z,249.27
2023-04-09T11:08:58.345Z,249.35
2023-04-09T11:09:58.345Z,249.14
2023-04-09T11:10:58.366Z,249.81
2023-04-09T11:11:58.349Z,249.74
2023-04-09T11:12:58.348Z,249.60
2023-04-09T11:13:58.353Z,249.12
2023-04-09T11:14:58.353Z,249.26
2023-04-09T11:15:58.391Z,249.49
2023-04-09T11:16:58.350Z,249.68
2023-04-09T11:17:58.431Z,248.62
2023-04-09T11:18:58.363Z,249.80
2023-04-09T11:19:58.345Z,249.45
2023-04-09T11:20:58.387Z,249.24
2023-04-09T11:21:58.347Z,249.07
2023-04-09T11:22:58.347Z,248.68
2023-04-09T11:23:58.335Z,249.87
2023-04-09T11:24:58.334Z,249.11
2023-04-09T11:25:58.340Z,248.97
2023-04-09T11:26:58.340Z,249.25
2023-04-09T11:27:58.325Z,249.48
2023-04-09T11:28:58.334Z,249.48
2023-04-09T11:29:58.315Z,249.26
2023-04-09T11:30:58.310Z,248.71
2023-04-09T11:31:58.352Z,248.99
2023-04-09T11:32:58.361Z,249.14
2023-04-09T11:33:58.281Z,248.58
2023-04-09T11:34:58.284Z,250.00
2023-04-09T11:35:58.320Z,248.88
2023-04-09T11:36:58.273Z,249.36
2023-04-09T11:37:58.264Z,249.80
2023-04-09T11:38:58.269Z,248.71
2023-04-09T11:39:58.269Z,247.96
2023-04-09T11:40:58.276Z,248.61
2023-04-09T11:41:58.261Z,249.20
2023-04-09T11:42:58.263Z,249.96
2023-04-09T11:43:58.254Z,249.43
2023-04-09T11:44:58.247Z,249.01
2023-04-09T11:45:58.239Z,248.68
2023-04-09T11:46:58.272Z,249.19
2023-04-09T11:47:58.286Z,248.60
2023-04-09T11:48:58.219Z,249.39
2023-04-09T11:49:58.213Z,249.13
2023-04-09T11:50:58.206Z,248.98
2023-04-09T11:51:58.171Z,247.94
2023-04-09T11:52:58.167Z,247.94
2023-04-09T11:53:58.146Z,249.68
2023-04-09T11:54:58.147Z,247.91
2023-04-09T11:55:58.147Z,248.52
2023-04-09T11:56:58.124Z,247.56
2023-04-09T11:57:58.125Z,247.17
2023-04-09T11:58:58.096Z,247.98
2023-04-09T11:59:58.073Z,247.81
2023-04-09T12:00:58.080Z,249.85
2023-04-09T12:01:58.165Z,248.00
2023-04-09T12:02:58.190Z,248.86
2023-04-09T12:03:58.176Z,247.28
2023-04-09T12:04:58.124Z,248.84
2023-04-09T12:05:58.021Z,247.59
2023-04-09T12:06:58.033Z,248.75
2023-04-09T12:07:58.050Z,248.14
2023-04-09T12:08:58.080Z,247.97
2023-04-09T12:09:58.114Z,247.43
2023-04-09T12:10:58.174Z,247.59
2023-04-09T12:11:58.238Z,248.07
2023-04-09T12:12:58.276Z,247.28
2023-04-09T12:13:58.287Z,246.81
2023-04-09T12:14:58.336Z,247.38
2023-04-09T12:15:59.201Z,249.32
2023-04-09T12:16:58.465Z,247.91
2023-04-09T12:17:58.465Z,247.73
2023-04-09T12:18:58.516Z,248.09
2023-04-09T12:19:58.562Z,246.79
2023-04-09T12:20:58.617Z,248.35
2023-04-09T12:21:58.701Z,248.11
2023-04-09T12:22:58.735Z,247.52
2023-04-09T12:23:58.792Z,247.37
2023-04-09T12:24:58.844Z,247.33
2023-04-09T12:25:58.893Z,248.17
2023-04-09T12:26:58.951Z,249.15
2023-04-09T12:27:58.978Z,247.63
2023-04-09T12:28:59.021Z,247.95
2023-04-09T12:29:59.070Z,247.87
2023-04-09T12:30:59.102Z,250.00
2023-04-09T12:31:59.191Z,248.40
2023-04-09T12:32:59.215Z,247.24
2023-04-09T12:33:59.221Z,247.42
2023-04-09T12:34:59.247Z,247.74
2023-04-09T12:35:59.282Z,247.31
2023-04-09T12:36:59.282Z,246.30
2023-04-09T12:37:59.389Z,248.39
2023-04-09T12:38:59.336Z,246.85
2023-04-09T12:39:59.358Z,247.46